KTYL Airport (Taylor) Information

FAA: TYL - ICAO: KTYL

KTYL Airport Location

State Arizona
County Navajo
City Taylor
KTYL Airport is 2 miles southwest of Taylor, AZ.
Latitude 34-27-09.8000N
Longitude 110-06-54.1000W
Elevation 5,823ft

KTYL Airport METARs

METAR KTYL 181415Z AUTO 21004KT 10SM FEW046 OVC070 03/M02 A3010 RMK AO2
Altimeter 30.10"
Temperature 3.0°C (37.4°F)
Wind 210° at 4KT
Clouds few at 4,600ft overcast at 7,000ft
Visibility 10.0mi
Time observed: 2022-01-18T14:15:00Z

KTYL Airport Details

Status Operational
Activation June 1976
Ownership Public
Usage Public
Chart PHOENIX
ATC on-site No
Beacon schedule sunset-sunrise
Beacon color clear green

KTYL Airport Contacts

Owner TOWN OF TAYLOR
Owner address BOX 158, TAYLOR, AZ 85939
Owner phone 520-536-7366
Manager JAMES MOULDER
Manager address 29916 NORTH 165TH AVE., SURPRISE, AZ 85387
Manager phone 623-546-2943

KTYL Airport (Taylor) Radio Frequencies

KTYL (Airport) Radio Frequencies

UNICOM 122.7
Common traffic advisory frequency (CTAF) 122.7